Wetterdaten: Montag, 22.03.2010
Datum Zeit Temp. A. Feuchte A. Luftdruck Regen Wind Richtung Richtung Sonnenschein UV Solar Windben
22.03.2010 00:00 5,4 C 90 % 1021,1 hPa 0,0 mm 0,0 km/h (0 Bft) N 0 0 min 0 UV-I 0 W/m 0,0 km/h (0 Bft)
22.03.2010 00:10 5,4 C 90 % 1019,8 hPa 0,0 mm 0,0 km/h (0 Bft) N 0 0 min 0 UV-I 0 W/m 0,0 km/h (0 Bft)
22.03.2010 00:20 5,3 C 90 % 1021,2 hPa 0,0 mm 0,0 km/h (0 Bft) N 0 0 min 0 UV-I 0 W/m 0,0 km/h (0 Bft)
22.03.2010 00:30 5,3 C 90 % 1021,2 hPa 0,0 mm 0,0 km/h (0 Bft) N 0 0 min 0 UV-I 0 W/m 0,0 km/h (0 Bft)
22.03.2010 00:40 5,2 C 90 % 1020,5 hPa 0,0 mm 0,0 km/h (0 Bft) N 0 0 min 0 UV-I 0 W/m 0,0 km/h (0 Bft)
22.03.2010 00:50 5,2 C 90 % 1021,4 hPa 0,0 mm 0,0 km/h (0 Bft) N 0 0 min 0 UV-I 0 W/m 0,0 km/h (0 Bft)
22.03.2010 01:00 5,2 C 91 % 1020,9 hPa 0,0 mm 0,0 km/h (0 Bft) N 0 0 min 0 UV-I 0 W/m 0,0 km/h (0 Bft)
22.03.2010 01:10 5,2 C 91 % 1021,4 hPa 0,0 mm 0,0 km/h (0 Bft) N 0 0 min 0 UV-I 0 W/m 0,0 km/h (0 Bft)
22.03.2010 01:20 5,2 C 91 % 1021,4 hPa 0,0 mm 0,0 km/h (0 Bft) N 0 0 min 0 UV-I 0 W/m 0,0 km/h (0 Bft)
22.03.2010 01:30 5,2 C 91 % 1021,5 hPa 0,0 mm 0,0 km/h (0 Bft) N 0 0 min 0 UV-I 0 W/m 0,0 km/h (0 Bft)
22.03.2010 01:40 5,2 C 91 % 1021,5 hPa 0,0 mm 0,0 km/h (0 Bft) N 0 0 min 0 UV-I 0 W/m 0,0 km/h (0 Bft)
22.03.2010 01:50 5,3 C 91 % 1021,7 hPa 0,0 mm 0,0 km/h (0 Bft) SW 225 0 min 0 UV-I 0 W/m 3,2 km/h (1 Bft)
22.03.2010 02:00 5,3 C 91 % 1021,2 hPa 0,0 mm 1,6 km/h (1 Bft) S-SW 202 0 min 0 UV-I 0 W/m 3,2 km/h (1 Bft)
22.03.2010 02:10 5,3 C 91 % 1018,9 hPa 0,0 mm 0,0 km/h (0 Bft) S-SW 202 0 min 0 UV-I 0 W/m 3,2 km/h (1 Bft)
22.03.2010 02:20 5,3 C 91 % 1018,8 hPa 0,0 mm 0,0 km/h (0 Bft) S-SW 202 0 min 0 UV-I 0 W/m 1,6 km/h (1 Bft)
22.03.2010 02:30 5,2 C 91 % 1018,7 hPa 0,0 mm 0,0 km/h (0 Bft) S-SW 202 0 min 0 UV-I 0 W/m 1,6 km/h (1 Bft)
22.03.2010 02:40 5,1 C 91 % 1018,6 hPa 0,0 mm 0,0 km/h (0 Bft) N 0 0 min 0 UV-I 0 W/m 0,0 km/h (0 Bft)
22.03.2010 02:50 5,1 C 91 % 1017,9 hPa 0,0 mm 0,0 km/h (0 Bft) N 0 0 min 0 UV-I 0 W/m 0,0 km/h (0 Bft)
22.03.2010 03:00 5,1 C 92 % 1018,9 hPa 0,0 mm 0,0 km/h (0 Bft) N 0 0 min 0 UV-I 0 W/m 0,0 km/h (0 Bft)
22.03.2010 03:10 5,1 C 92 % 1019,4 hPa 0,0 mm 0,0 km/h (0 Bft) N 0 0 min 0 UV-I 0 W/m 0,0 km/h (0 Bft)
22.03.2010 03:20 5,1 C 92 % 1020,7 hPa 0,0 mm 0,0 km/h (0 Bft) S-SW 202 0 min 0 UV-I 0 W/m 3,2 km/h (1 Bft)
22.03.2010 03:30 5,2 C 92 % 1021,5 hPa 0,0 mm 0,0 km/h (0 Bft) S-SW 202 0 min 0 UV-I 0 W/m 3,2 km/h (1 Bft)
22.03.2010 03:40 5,3 C 92 % 1021,2 hPa 0,0 mm 0,0 km/h (0 Bft) S-SW 202 0 min 0 UV-I 0 W/m 4,8 km/h (1 Bft)
22.03.2010 03:50 5,3 C 92 % 1021,1 hPa 0,0 mm 0,0 km/h (0 Bft) S-SW 202 0 min 0 UV-I 0 W/m 3,2 km/h (1 Bft)
22.03.2010 04:00 5,3 C 92 % 1021,2 hPa 0,0 mm 1,6 km/h (1 Bft) S 180 0 min 0 UV-I 0 W/m 4,8 km/h (1 Bft)
22.03.2010 04:10 5,3 C 92 % 1021,7 hPa 0,0 mm 1,6 km/h (1 Bft) SO 135 0 min 0 UV-I 0 W/m 6,4 km/h (2 Bft)
22.03.2010 04:20 5,3 C 92 % 1021,7 hPa 0,0 mm 1,6 km/h (1 Bft) SO 135 0 min 0 UV-I 0 W/m 4,8 km/h (1 Bft)
22.03.2010 04:30 5,2 C 92 % 1021,9 hPa 0,0 mm 0,0 km/h (0 Bft) S 180 0 min 0 UV-I 0 W/m 8,0 km/h (2 Bft)
22.03.2010 04:40 5,1 C 92 % 1022,0 hPa 0,0 mm 1,6 km/h (1 Bft) S 180 0 min 0 UV-I 0 W/m 4,8 km/h (1 Bft)
22.03.2010 04:50 4,9 C 92 % 1022,0 hPa 0,0 mm 1,6 km/h (1 Bft) S 180 0 min 0 UV-I 0 W/m 6,4 km/h (2 Bft)
22.03.2010 05:00 4,8 C 92 % 1021,5 hPa 0,0 mm 0,0 km/h (0 Bft) S 180 0 min 0 UV-I 0 W/m 3,2 km/h (1 Bft)
22.03.2010 05:10 4,7 C 92 % 1021,1 hPa 0,0 mm 0,0 km/h (0 Bft) S 180 0 min 0 UV-I 0 W/m 3,2 km/h (1 Bft)
22.03.2010 05:20 4,6 C 92 % 1022,1 hPa 0,0 mm 0,0 km/h (0 Bft) S 180 0 min 0 UV-I 0 W/m 1,6 km/h (1 Bft)
22.03.2010 05:30 4,5 C 92 % 1021,7 hPa 0,0 mm 0,0 km/h (0 Bft) S 180 0 min 0 UV-I 0 W/m 1,6 km/h (1 Bft)
22.03.2010 05:40 4,4 C 92 % 1022,0 hPa 0,0 mm 0,0 km/h (0 Bft) S-SO 157 0 min 0 UV-I 0 W/m 4,8 km/h (1 Bft)
22.03.2010 05:50 4,3 C 92 % 1022,0 hPa 0,0 mm 0,0 km/h (0 Bft) S-SO 157 0 min 0 UV-I 0 W/m 4,8 km/h (1 Bft)
22.03.2010 06:00 4,3 C 92 % 1021,6 hPa 0,0 mm 1,6 km/h (1 Bft) S-SO 157 0 min 0 UV-I 0 W/m 4,8 km/h (1 Bft)
22.03.2010 06:10 4,2 C 92 % 1021,1 hPa 0,0 mm 1,6 km/h (1 Bft) O-SO 112 0 min 0 UV-I 0 W/m 6,4 km/h (2 Bft)
22.03.2010 06:20 4,1 C 92 % 1021,1 hPa 0,0 mm 1,6 km/h (1 Bft) O-SO 112 0 min 0 UV-I 0 W/m 4,8 km/h (1 Bft)
22.03.2010 06:30 3,9 C 92 % 1019,0 hPa 0,0 mm 1,6 km/h (1 Bft) O-SO 112 0 min 0 UV-I 0 W/m 4,8 km/h (1 Bft)
22.03.2010 06:40 3,9 C 92 % 1022,1 hPa 0,0 mm 1,6 km/h (1 Bft) O-SO 112 0 min 0 UV-I 11 W/m 6,4 km/h (2 Bft)
22.03.2010 06:50 3,8 C 92 % 1022,1 hPa 0,0 mm 1,6 km/h (1 Bft) O-SO 112 0 min 0 UV-I 26 W/m 4,8 km/h (1 Bft)
22.03.2010 07:00 3,7 C 92 % 1022,2 hPa 0,0 mm 3,2 km/h (1 Bft) O-SO 112 0 min 0 UV-I 40 W/m 4,8 km/h (1 Bft)
22.03.2010 07:10 3,7 C 92 % 1022,2 hPa 0,0 mm 1,6 km/h (1 Bft) O-SO 112 0 min 0 UV-I 42 W/m 6,4 km/h (2 Bft)
22.03.2010 07:20 3,6 C 92 % 1019,2 hPa 0,0 mm 1,6 km/h (1 Bft) O-SO 112 0 min 0 UV-I 44 W/m 4,8 km/h (1 Bft)
22.03.2010 07:30 3,5 C 92 % 1022,2 hPa 0,0 mm 1,6 km/h (1 Bft) O-SO 112 0 min 0 UV-I 51 W/m 3,2 km/h (1 Bft)
22.03.2010 07:40 3,5 C 92 % 1021,4 hPa 0,0 mm 0,0 km/h (0 Bft) O-SO 112 10 min 0 UV-I 141 W/m 3,2 km/h (1 Bft)
22.03.2010 07:50 3,6 C 93 % 1021,3 hPa 0,0 mm 0,0 km/h (0 Bft) O-SO 112 10 min 0 UV-I 165 W/m 3,2 km/h (1 Bft)
22.03.2010 08:00 4,5 C 93 % 1022,0 hPa 0,0 mm 0,3 km/h (0 Bft) O-SO 106 10 min 1 UV-I 189 W/m 1,6 km/h (1 Bft)
22.03.2010 08:10 4,8 C 93 % 1022,0 hPa 0,0 mm 1,6 km/h (1 Bft) O-SO 112 10 min 1 UV-I 214 W/m 3,2 km/h (1 Bft)
22.03.2010 08:20 5,2 C 93 % 1021,9 hPa 0,0 mm 1,6 km/h (1 Bft) O-SO 112 10 min 1 UV-I 243 W/m 4,8 km/h (1 Bft)
22.03.2010 08:30 5,7 C 93 % 1021,9 hPa 0,0 mm 0,0 km/h (0 Bft) O-SO 112 10 min 1 UV-I 264 W/m 3,2 km/h (1 Bft)
22.03.2010 08:40 6,0 C 92 % 1021,9 hPa 0,0 mm 0,0 km/h (0 Bft) O-SO 112 10 min 1 UV-I 285 W/m 3,2 km/h (1 Bft)
22.03.2010 08:50 6,4 C 91 % 1021,2 hPa 0,0 mm 0,0 km/h (0 Bft) O-SO 112 10 min 1 UV-I 309 W/m 1,6 km/h (1 Bft)
22.03.2010 09:00 7,2 C 90 % 1021,2 hPa 0,0 mm 0,0 km/h (0 Bft) O-SO 112 10 min 1 UV-I 336 W/m 1,6 km/h (1 Bft)
22.03.2010 09:10 7,7 C 87 % 1022,0 hPa 0,0 mm 0,0 km/h (0 Bft) O-SO 112 10 min 1 UV-I 367 W/m 4,8 km/h (1 Bft)
22.03.2010 09:20 8,3 C 85 % 1021,6 hPa 0,0 mm 1,6 km/h (1 Bft) S-SO 157 10 min 2 UV-I 418 W/m 8,0 km/h (2 Bft)
22.03.2010 09:30 8,8 C 84 % 1020,3 hPa 0,0 mm 1,6 km/h (1 Bft) S 180 10 min 2 UV-I 501 W/m 8,0 km/h (2 Bft)
22.03.2010 09:40 9,6 C 80 % 1019,3 hPa 0,0 mm 4,8 km/h (1 Bft) O-SO 112 10 min 2 UV-I 584 W/m 14,5 km/h (3 Bft)
22.03.2010 09:50 9,8 C 80 % 1019,4 hPa 0,0 mm 1,6 km/h (1 Bft) S-SO 157 10 min 2 UV-I 325 W/m 8,0 km/h (2 Bft)
22.03.2010 10:00 9,9 C 80 % 1021,5 hPa 0,0 mm 1,6 km/h (1 Bft) O-SO 112 0 min 1 UV-I 262 W/m 8,0 km/h (2 Bft)
22.03.2010 10:10 9,7 C 80 % 1019,9 hPa 0,0 mm 1,6 km/h (1 Bft) S-SO 157 0 min 1 UV-I 237 W/m 9,7 km/h (2 Bft)
22.03.2010 10:20 9,8 C 79 % 1021,6 hPa 0,0 mm 1,6 km/h (1 Bft) S-SO 157 0 min 2 UV-I 269 W/m 11,3 km/h (2 Bft)
22.03.2010 10:30 9,9 C 80 % 1020,7 hPa 0,0 mm 3,2 km/h (1 Bft) O-SO 112 0 min 2 UV-I 292 W/m 12,9 km/h (3 Bft)
22.03.2010 10:40 10,1 C 78 % 1022,1 hPa 0,0 mm 4,8 km/h (1 Bft) O-SO 112 10 min 2 UV-I 359 W/m 12,9 km/h (3 Bft)
22.03.2010 10:50 10,4 C 76 % 1022,0 hPa 0,0 mm 3,2 km/h (1 Bft) O-SO 112 10 min 2 UV-I 411 W/m 14,5 km/h (3 Bft)
22.03.2010 11:00 10,6 C 75 % 1022,1 hPa 0,0 mm 4,8 km/h (1 Bft) S-SO 157 10 min 2 UV-I 353 W/m 14,5 km/h (3 Bft)
22.03.2010 11:10 10,6 C 74 % 1019,9 hPa 0,0 mm 4,8 km/h (1 Bft) O-SO 112 10 min 2 UV-I 359 W/m 9,7 km/h (2 Bft)
22.03.2010 11:20 10,7 C 73 % 1022,1 hPa 0,0 mm 1,6 km/h (1 Bft) S-SW 202 10 min 2 UV-I 366 W/m 11,3 km/h (2 Bft)
22.03.2010 11:30 10,7 C 75 % 1022,1 hPa 0,0 mm 3,2 km/h (1 Bft) S 180 10 min 2 UV-I 345 W/m 8,0 km/h (2 Bft)
22.03.2010 11:40 10,8 C 75 % 1022,0 hPa 0,0 mm 1,6 km/h (1 Bft) S-SW 202 0 min 2 UV-I 313 W/m 9,7 km/h (2 Bft)
22.03.2010 11:50 10,9 C 72 % 1021,9 hPa 0,0 mm 1,6 km/h (1 Bft) S 180 0 min 2 UV-I 338 W/m 9,7 km/h (2 Bft)
22.03.2010 12:00 11,2 C 74 % 1021,7 hPa 0,0 mm 3,2 km/h (1 Bft) O-SO 112 10 min 3 UV-I 575 W/m 9,7 km/h (2 Bft)
22.03.2010 12:10 11,9 C 71 % 1021,7 hPa 0,0 mm 3,2 km/h (1 Bft) S-SO 157 10 min 3 UV-I 666 W/m 11,3 km/h (2 Bft)
22.03.2010 12:20 12,1 C 72 % 1021,5 hPa 0,0 mm 1,6 km/h (1 Bft) SO 135 10 min 4 UV-I 445 W/m 9,7 km/h (2 Bft)
22.03.2010 12:30 12,0 C 70 % 1021,4 hPa 0,0 mm 1,6 km/h (1 Bft) O-SO 112 10 min 2 UV-I 422 W/m 6,4 km/h (2 Bft)
22.03.2010 12:40 12,1 C 72 % 1021,3 hPa 0,0 mm 3,2 km/h (1 Bft) O-SO 112 10 min 3 UV-I 448 W/m 9,7 km/h (2 Bft)
22.03.2010 12:50 12,1 C 70 % 1021,3 hPa 0,0 mm 1,6 km/h (1 Bft) SO 135 10 min 2 UV-I 360 W/m 6,4 km/h (2 Bft)
22.03.2010 13:00 11,9 C 70 % 1021,3 hPa 0,0 mm 0,0 km/h (0 Bft) SO 135 0 min 1 UV-I 185 W/m 4,8 km/h (1 Bft)
22.03.2010 13:10 11,7 C 71 % 1021,1 hPa 0,0 mm 0,0 km/h (0 Bft) W 270 0 min 2 UV-I 325 W/m 3,2 km/h (1 Bft)
22.03.2010 13:20 11,8 C 67 % 1020,9 hPa 0,0 mm 1,6 km/h (1 Bft) W-SW 247 10 min 3 UV-I 420 W/m 8,0 km/h (2 Bft)
22.03.2010 13:30 12,2 C 67 % 1020,9 hPa 0,0 mm 1,6 km/h (1 Bft) S-SW 202 10 min 2 UV-I 429 W/m 8,0 km/h (2 Bft)
22.03.2010 13:40 12,2 C 68 % 1020,7 hPa 0,0 mm 1,6 km/h (1 Bft) SW 225 10 min 2 UV-I 369 W/m 11,3 km/h (2 Bft)
22.03.2010 13:50 12,2 C 67 % 1020,6 hPa 0,0 mm 1,6 km/h (1 Bft) S-SW 202 10 min 2 UV-I 332 W/m 8,0 km/h (2 Bft)
22.03.2010 14:00 12,3 C 68 % 1020,5 hPa 0,0 mm 1,6 km/h (1 Bft) W-SW 247 10 min 2 UV-I 339 W/m 6,4 km/h (2 Bft)
22.03.2010 14:10 12,3 C 70 % 1020,4 hPa 0,0 mm 3,2 km/h (1 Bft) W 270 0 min 2 UV-I 278 W/m 8,0 km/h (2 Bft)
22.03.2010 14:20 12,4 C 70 % 1020,4 hPa 0,0 mm 1,6 km/h (1 Bft) SW 225 0 min 2 UV-I 271 W/m 6,4 km/h (2 Bft)
22.03.2010 14:30 12,4 C 68 % 1020,3 hPa 0,0 mm 0,0 km/h (0 Bft) S-SW 202 10 min 2 UV-I 316 W/m 4,8 km/h (1 Bft)
22.03.2010 14:40 12,6 C 68 % 1020,3 hPa 0,0 mm 0,0 km/h (0 Bft) S 180 0 min 2 UV-I 251 W/m 4,8 km/h (1 Bft)
22.03.2010 14:50 12,3 C 68 % 1020,3 hPa 0,0 mm 0,0 km/h (0 Bft) SO 135 0 min 1 UV-I 155 W/m 3,2 km/h (1 Bft)
22.03.2010 15:00 12,3 C 69 % 1020,2 hPa 0,0 mm 1,6 km/h (1 Bft) W 270 0 min 1 UV-I 148 W/m 6,4 km/h (2 Bft)
22.03.2010 15:10 12,1 C 70 % 1020,3 hPa 0,0 mm 1,6 km/h (1 Bft) W-SW 247 0 min 1 UV-I 125 W/m 6,4 km/h (2 Bft)
22.03.2010 15:20 12,0 C 71 % 1020,1 hPa 0,0 mm 1,6 km/h (1 Bft) W-SW 247 0 min 1 UV-I 149 W/m 8,0 km/h (2 Bft)
22.03.2010 15:30 11,9 C 71 % 1020,1 hPa 0,0 mm 1,6 km/h (1 Bft) W-SW 247 0 min 1 UV-I 141 W/m 6,4 km/h (2 Bft)
22.03.2010 15:40 11,8 C 71 % 1020,1 hPa 0,0 mm 1,6 km/h (1 Bft) W-SW 247 0 min 1 UV-I 88 W/m 8,0 km/h (2 Bft)
22.03.2010 15:50 11,7 C 72 % 1020,1 hPa 0,0 mm 1,6 km/h (1 Bft) W-SW 247 0 min 0 UV-I 46 W/m 8,0 km/h (2 Bft)
22.03.2010 16:00 11,7 C 72 % 1020,1 hPa 0,0 mm 1,9 km/h (1 Bft) SW 228 0 min 0 UV-I 43 W/m 4,8 km/h (1 Bft)
22.03.2010 16:10 11,6 C 72 % 1020,0 hPa 0,0 mm 1,6 km/h (1 Bft) W-SW 247 0 min 0 UV-I 42 W/m 8,0 km/h (2 Bft)
22.03.2010 16:20 11,5 C 73 % 1019,9 hPa 0,0 mm 3,2 km/h (1 Bft) W 270 0 min 0 UV-I 30 W/m 8,0 km/h (2 Bft)
22.03.2010 16:30 11,4 C 73 % 1019,8 hPa 0,0 mm 1,6 km/h (1 Bft) W 270 0 min 0 UV-I 46 W/m 6,4 km/h (2 Bft)
22.03.2010 16:40 11,3 C 75 % 1019,7 hPa 0,0 mm 3,2 km/h (1 Bft) W-SW 247 0 min 0 UV-I 46 W/m 9,7 km/h (2 Bft)
22.03.2010 16:50 11,2 C 75 % 1019,6 hPa 0,0 mm 1,6 km/h (1 Bft) SW 225 0 min 0 UV-I 44 W/m 4,8 km/h (1 Bft)
22.03.2010 17:00 11,2 C 74 % 1019,3 hPa 0,0 mm 0,0 km/h (0 Bft) SW 225 0 min 0 UV-I 113 W/m 3,2 km/h (1 Bft)
22.03.2010 17:10 11,3 C 75 % 1019,3 hPa 0,0 mm 0,0 km/h (0 Bft) SW 225 0 min 0 UV-I 125 W/m 1,6 km/h (1 Bft)
22.03.2010 17:20 11,4 C 74 % 1019,2 hPa 0,0 mm 0,0 km/h (0 Bft) SW 225 10 min 0 UV-I 123 W/m 1,6 km/h (1 Bft)
22.03.2010 17:30 11,4 C 75 % 1019,1 hPa 0,0 mm 0,0 km/h (0 Bft) SW 225 10 min 0 UV-I 116 W/m 3,2 km/h (1 Bft)
22.03.2010 17:40 11,4 C 76 % 1019,1 hPa 0,0 mm 0,0 km/h (0 Bft) O-SO 112 10 min 0 UV-I 118 W/m 4,8 km/h (1 Bft)
22.03.2010 17:50 11,4 C 75 % 1019,1 hPa 0,0 mm 0,0 km/h (0 Bft) O-SO 112 10 min 0 UV-I 107 W/m 3,2 km/h (1 Bft)
22.03.2010 18:00 11,4 C 75 % 1019,1 hPa 0,0 mm 0,0 km/h (0 Bft) O-SO 112 10 min 0 UV-I 95 W/m 3,2 km/h (1 Bft)
22.03.2010 18:10 11,2 C 76 % 1019,1 hPa 0,0 mm 0,0 km/h (0 Bft) O-SO 112 10 min 0 UV-I 65 W/m 1,6 km/h (1 Bft)
22.03.2010 18:20 10,9 C 78 % 1019,1 hPa 0,0 mm 0,0 km/h (0 Bft) O-SO 112 10 min 0 UV-I 40 W/m 1,6 km/h (1 Bft)
22.03.2010 18:30 10,6 C 79 % 1019,0 hPa 0,0 mm 0,0 km/h (0 Bft) O-SO 112 10 min 0 UV-I 26 W/m 3,2 km/h (1 Bft)
22.03.2010 18:40 10,1 C 80 % 1019,0 hPa 0,0 mm 0,0 km/h (0 Bft) N 0 0 min 0 UV-I 14 W/m 0,0 km/h (0 Bft)
22.03.2010 18:50 9,8 C 81 % 1019,1 hPa 0,0 mm 0,0 km/h (0 Bft) N 0 0 min 0 UV-I 5 W/m 0,0 km/h (0 Bft)
22.03.2010 19:00 9,7 C 81 % 1019,1 hPa 0,0 mm 0,0 km/h (0 Bft) N 0 0 min 0 UV-I 0 W/m 0,0 km/h (0 Bft)
22.03.2010 19:10 9,4 C 83 % 1019,2 hPa 0,0 mm 0,0 km/h (0 Bft) N 0 0 min 0 UV-I 0 W/m 0,0 km/h (0 Bft)
22.03.2010 19:20 9,2 C 84 % 1019,3 hPa 0,0 mm 0,0 km/h (0 Bft) N 0 0 min 0 UV-I 0 W/m 0,0 km/h (0 Bft)
22.03.2010 19:30 9,2 C 85 % 1019,3 hPa 0,0 mm 0,0 km/h (0 Bft) N 0 0 min 0 UV-I 0 W/m 0,0 km/h (0 Bft)
22.03.2010 19:40 9,2 C 85 % 1019,3 hPa 0,0 mm 0,0 km/h (0 Bft) N 0 0 min 0 UV-I 0 W/m 0,0 km/h (0 Bft)
22.03.2010 19:50 9,1 C 85 % 1019,3 hPa 0,0 mm 0,0 km/h (0 Bft) N 0 0 min 0 UV-I 0 W/m 0,0 km/h (0 Bft)
22.03.2010 20:00 9,1 C 85 % 1019,2 hPa 0,0 mm 0,0 km/h (0 Bft) N 0 0 min 0 UV-I 0 W/m 0,0 km/h (0 Bft)
22.03.2010 20:10 9,0 C 84 % 1019,0 hPa 0,0 mm 0,0 km/h (0 Bft) O-SO 112 0 min 0 UV-I 0 W/m 1,6 km/h (1 Bft)
22.03.2010 20:20 8,9 C 83 % 1019,0 hPa 0,0 mm 0,0 km/h (0 Bft) O-SO 112 0 min 0 UV-I 0 W/m 1,6 km/h (1 Bft)
22.03.2010 20:30 8,8 C 83 % 1018,9 hPa 0,0 mm 0,0 km/h (0 Bft) N 0 0 min 0 UV-I 0 W/m 0,0 km/h (0 Bft)
22.03.2010 20:40 8,5 C 83 % 1018,9 hPa 0,0 mm 0,0 km/h (0 Bft) N 0 0 min 0 UV-I 0 W/m 0,0 km/h (0 Bft)
22.03.2010 20:50 8,1 C 84 % 1018,8 hPa 0,0 mm 0,0 km/h (0 Bft) N 0 0 min 0 UV-I 0 W/m 0,0 km/h (0 Bft)
22.03.2010 21:00 7,9 C 85 % 1018,8 hPa 0,0 mm 0,0 km/h (0 Bft) O-SO 112 0 min 0 UV-I 0 W/m 3,2 km/h (1 Bft)
22.03.2010 21:10 7,7 C 85 % 1017,7 hPa 0,0 mm 0,0 km/h (0 Bft) O-SO 112 0 min 0 UV-I 0 W/m 3,2 km/h (1 Bft)
22.03.2010 21:20 7,6 C 85 % 1018,5 hPa 0,0 mm 0,0 km/h (0 Bft) O-SO 112 0 min 0 UV-I 0 W/m 3,2 km/h (1 Bft)
22.03.2010 21:30 7,4 C 85 % 1018,4 hPa 0,0 mm 0,0 km/h (0 Bft) S-SO 157 0 min 0 UV-I 0 W/m 6,4 km/h (2 Bft)
22.03.2010 21:40 7,3 C 85 % 1018,5 hPa 0,0 mm 0,0 km/h (0 Bft) SO 135 0 min 0 UV-I 0 W/m 4,8 km/h (1 Bft)
22.03.2010 21:50 7,4 C 85 % 1018,6 hPa 0,0 mm 0,0 km/h (0 Bft) S-SO 157 0 min 0 UV-I 0 W/m 3,2 km/h (1 Bft)
22.03.2010 22:00 7,3 C 85 % 1018,6 hPa 0,0 mm 0,0 km/h (0 Bft) S-SO 157 0 min 0 UV-I 0 W/m 3,2 km/h (1 Bft)
22.03.2010 22:10 7,3 C 85 % 1017,7 hPa 0,0 mm 0,0 km/h (0 Bft) S-SO 157 0 min 0 UV-I 0 W/m 1,6 km/h (1 Bft)
22.03.2010 22:20 7,2 C 85 % 1018,6 hPa 0,0 mm 0,0 km/h (0 Bft) S-SO 157 0 min 0 UV-I 0 W/m 3,2 km/h (1 Bft)
22.03.2010 22:30 7,2 C 85 % 1018,5 hPa 0,0 mm 0,0 km/h (0 Bft) S-SO 157 0 min 0 UV-I 0 W/m 4,8 km/h (1 Bft)
22.03.2010 22:40 7,0 C 85 % 1018,4 hPa 0,0 mm 0,0 km/h (0 Bft) S-SO 157 0 min 0 UV-I 0 W/m 1,6 km/h (1 Bft)
22.03.2010 22:50 6,9 C 85 % 1017,9 hPa 0,0 mm 0,0 km/h (0 Bft) S-SO 157 0 min 0 UV-I 0 W/m 3,2 km/h (1 Bft)
22.03.2010 23:00 6,8 C 86 % 1018,0 hPa 0,0 mm 1,6 km/h (1 Bft) S-SO 157 0 min 0 UV-I 0 W/m 6,4 km/h (2 Bft)
22.03.2010 23:10 6,7 C 86 % 1018,5 hPa 0,0 mm 1,6 km/h (1 Bft) S-SO 157 0 min 0 UV-I 0 W/m 8,0 km/h (2 Bft)
22.03.2010 23:20 6,7 C 87 % 1018,4 hPa 0,0 mm 1,6 km/h (1 Bft) SO 135 0 min 0 UV-I 0 W/m 6,4 km/h (2 Bft)
22.03.2010 23:30 6,7 C 87 % 1018,4 hPa 0,0 mm 1,6 km/h (1 Bft) S-SO 157 0 min 0 UV-I 0 W/m 6,4 km/h (2 Bft)
22.03.2010 23:40 6,6 C 87 % 1018,4 hPa 0,0 mm 0,0 km/h (0 Bft) SO 135 0 min 0 UV-I 0 W/m 1,6 km/h (1 Bft)
22.03.2010 23:50 6,6 C 87 % 1018,4 hPa 0,0 mm 0,0 km/h (0 Bft) SO 135 0 min 0 UV-I 0 W/m 1,6 km/h (1 Bft)
_ Min-Zeit 07:20 13:20 21:10 - 00:00 - - - - - 00:00
Minimum _ 3,5 C 67 % 1017,7 hPa - 0,0 km/h (0 Bft) - - - - - 0,0 km/h (0 Bft)
_ Max-Zeit 14:30 07:50 07:00 00:00 09:40 - - 07:40 12:20 12:10 09:40
Maximum _ 12,7 C 93 % 1022,2 hPa 0,0 mm 4,8 km/h
O-SO (1 Bft)
- - 10 min 4 UV-I 666 W/m 14,5 km/h
O-SO (3 Bft)
Durchschnitt _ 8,1 C 83 % 1020,3 hPa #0,0 mm 0,9 km/h (0 Bft) O-SO - #6:40 h 2 UV-I 229 W/m 4,5 km/h (1 Bft)